createdAt,value
2018-11-11T00:01:42.537Z,12.10
2018-11-11T00:04:10.986Z,12.10
2018-11-11T00:06:39.433Z,12.10
2018-11-11T00:09:08.897Z,12.10
2018-11-11T00:11:37.375Z,12.10
2018-11-11T00:14:06.362Z,12.10
2018-11-11T00:16:34.805Z,12.10
2018-11-11T00:19:03.622Z,12.10
2018-11-11T00:21:32.128Z,12.10
2018-11-11T00:24:00.724Z,12.10
2018-11-11T00:26:29.165Z,12.10
2018-11-11T00:28:57.586Z,12.10
2018-11-11T00:31:26.062Z,12.10
2018-11-11T00:33:54.514Z,12.10
2018-11-11T00:36:22.969Z,12.10
2018-11-11T00:38:51.418Z,12.10
2018-11-11T00:41:19.851Z,12.10
2018-11-11T00:43:48.302Z,12.10
2018-11-11T00:46:16.738Z,12.20
2018-11-11T00:48:45.371Z,12.10
2018-11-11T00:51:13.797Z,12.10
2018-11-11T00:53:42.262Z,12.10
2018-11-11T00:56:10.693Z,12.10
2018-11-11T00:58:39.126Z,12.00
2018-11-11T01:01:07.573Z,12.10
2018-11-11T01:03:36.029Z,12.10
2018-11-11T01:06:04.516Z,12.00
2018-11-11T01:08:32.953Z,12.00
2018-11-11T01:11:01.399Z,12.00
2018-11-11T01:13:29.850Z,12.00
2018-11-11T01:15:58.293Z,12.00
2018-11-11T01:18:26.734Z,11.90
2018-11-11T01:20:56.002Z,11.90
2018-11-11T01:23:24.461Z,11.90
2018-11-11T01:25:52.891Z,11.80
2018-11-11T01:28:21.337Z,11.70
2018-11-11T01:30:49.797Z,11.70
2018-11-11T01:33:18.270Z,11.70
2018-11-11T01:35:46.897Z,11.60
2018-11-11T01:38:15.339Z,11.60
2018-11-11T01:40:43.779Z,11.60
2018-11-11T01:43:12.239Z,11.50
2018-11-11T01:45:40.677Z,11.50
2018-11-11T01:48:09.126Z,11.50
2018-11-11T01:50:37.567Z,11.50
2018-11-11T01:53:06.606Z,11.40
2018-11-11T01:55:35.017Z,11.40
2018-11-11T01:58:03.723Z,11.40
2018-11-11T02:00:32.164Z,11.40
2018-11-11T02:03:00.604Z,11.40
2018-11-11T02:05:29.039Z,11.40
2018-11-11T02:07:57.490Z,11.50
2018-11-11T02:10:25.933Z,11.50
2018-11-11T02:12:56.516Z,11.50
2018-11-11T02:15:26.228Z,11.60
2018-11-11T02:17:55.603Z,11.60
2018-11-11T02:20:24.044Z,11.60
2018-11-11T02:22:52.489Z,11.60
2018-11-11T02:25:20.908Z,11.50
2018-11-11T02:27:49.350Z,11.50
2018-11-11T02:30:19.088Z,11.50
2018-11-11T02:32:47.583Z,11.40
2018-11-11T02:35:16.254Z,11.40
2018-11-11T02:37:44.944Z,11.30
2018-11-11T02:40:14.990Z,11.30
2018-11-11T02:42:43.562Z,11.30
2018-11-11T02:45:13.394Z,11.30
2018-11-11T02:47:41.813Z,11.30
2018-11-11T02:50:11.750Z,11.20
2018-11-11T02:52:40.839Z,11.20
2018-11-11T02:55:09.881Z,11.10
2018-11-11T02:57:38.874Z,11.10
2018-11-11T03:00:10.753Z,11.10
2018-11-11T03:02:39.658Z,11.10
2018-11-11T03:05:09.442Z,11.00
2018-11-11T03:07:38.017Z,11.10
2018-11-11T03:10:06.893Z,11.00
2018-11-11T03:12:36.033Z,11.00
2018-11-11T03:15:04.658Z,11.00
2018-11-11T03:17:33.245Z,11.00
2018-11-11T03:20:01.694Z,11.00
2018-11-11T03:22:30.436Z,11.00
2018-11-11T03:24:59.970Z,11.00
2018-11-11T03:27:28.629Z,11.00
2018-11-11T03:29:57.644Z,11.00
2018-11-11T03:32:26.073Z,11.00
2018-11-11T03:34:54.701Z,11.00
2018-11-11T03:37:23.133Z,11.10
2018-11-11T03:39:51.667Z,11.10
2018-11-11T03:42:20.177Z,11.10
2018-11-11T03:44:48.625Z,11.10
2018-11-11T03:47:17.057Z,11.10
2018-11-11T03:49:45.662Z,11.20
2018-11-11T03:52:14.481Z,11.20
2018-11-11T03:54:43.750Z,11.20
2018-11-11T03:57:12.205Z,11.30
2018-11-11T03:59:40.650Z,11.40
2018-11-11T04:02:10.186Z,11.40
2018-11-11T04:04:39.203Z,11.40
2018-11-11T04:07:07.694Z,11.40
2018-11-11T04:09:36.336Z,11.40
2018-11-11T04:12:05.486Z,11.40
2018-11-11T04:14:34.027Z,11.50
2018-11-11T04:17:02.491Z,11.40
2018-11-11T04:19:30.957Z,11.50
2018-11-11T04:22:03.863Z,11.50
2018-11-11T04:24:32.317Z,11.50
2018-11-11T04:27:01.707Z,11.50
2018-11-11T04:29:30.854Z,11.50
2018-11-11T04:31:59.326Z,11.50
2018-11-11T04:34:27.821Z,11.50
2018-11-11T04:36:56.273Z,11.50
2018-11-11T04:39:24.888Z,11.50
2018-11-11T04:41:53.497Z,11.40
2018-11-11T04:44:21.962Z,11.40
2018-11-11T04:46:50.413Z,11.30
2018-11-11T04:49:19.095Z,11.40
2018-11-11T04:51:48.253Z,11.50
2018-11-11T04:54:16.749Z,11.50
2018-11-11T04:56:45.175Z,11.50
2018-11-11T04:59:13.642Z,11.50
2018-11-11T05:01:42.386Z,11.50
2018-11-11T05:04:10.929Z,11.40
2018-11-11T05:06:39.424Z,11.40
2018-11-11T05:09:10.742Z,11.40
2018-11-11T05:11:39.430Z,11.50
2018-11-11T05:14:08.457Z,11.50
2018-11-11T05:16:36.922Z,11.60
2018-11-11T05:19:06.754Z,11.50
2018-11-11T05:21:35.247Z,11.60
2018-11-11T05:24:04.159Z,11.60
2018-11-11T05:26:32.621Z,11.60
2018-11-11T05:29:01.081Z,11.70
2018-11-11T05:31:29.562Z,11.70
2018-11-11T05:33:58.057Z,11.70
2018-11-11T05:36:26.517Z,11.70
2018-11-11T05:38:54.949Z,11.70
2018-11-11T05:41:23.411Z,11.70
2018-11-11T05:43:52.087Z,11.70
2018-11-11T05:46:20.798Z,11.80
2018-11-11T05:48:49.241Z,11.80
2018-11-11T05:51:17.701Z,11.80
2018-11-11T05:53:46.476Z,11.80
2018-11-11T05:56:14.930Z,11.80
2018-11-11T05:58:43.402Z,11.80
2018-11-11T06:01:11.877Z,11.80
2018-11-11T06:03:41.115Z,11.80
2018-11-11T06:06:09.638Z,11.80
2018-11-11T06:08:38.086Z,11.70
2018-11-11T06:11:06.557Z,11.70
2018-11-11T06:13:34.993Z,11.70
2018-11-11T06:16:03.478Z,11.60
2018-11-11T06:18:31.918Z,11.60
2018-11-11T06:21:00.389Z,11.60
2018-11-11T06:23:28.860Z,11.60
2018-11-11T06:25:57.333Z,11.60
2018-11-11T06:28:25.770Z,11.50
2018-11-11T06:30:54.242Z,11.50
2018-11-11T06:33:22.707Z,11.60
2018-11-11T06:35:51.178Z,11.60
2018-11-11T06:38:20.129Z,11.60
2018-11-11T06:40:48.606Z,11.60
2018-11-11T06:43:17.055Z,11.50
2018-11-11T06:45:45.506Z,11.60
2018-11-11T06:48:14.054Z,11.60
2018-11-11T06:50:42.626Z,11.60
2018-11-11T06:53:11.060Z,11.60
2018-11-11T06:55:39.522Z,11.60
2018-11-11T06:58:08.108Z,11.60
2018-11-11T07:00:36.627Z,11.70
2018-11-11T07:03:16.339Z,11.60
2018-11-11T07:05:44.926Z,11.70
2018-11-11T07:08:13.361Z,11.70
2018-11-11T07:10:41.806Z,11.70
2018-11-11T07:13:11.164Z,11.70
2018-11-11T07:15:39.612Z,11.70
2018-11-11T07:18:08.082Z,11.70
2018-11-11T07:20:36.515Z,11.70
2018-11-11T07:23:05.391Z,11.80
2018-11-11T07:25:33.858Z,11.70
2018-11-11T07:28:02.322Z,11.70
2018-11-11T07:30:30.782Z,11.70
2018-11-11T07:32:59.257Z,11.70
2018-11-11T07:35:27.756Z,11.70
2018-11-11T07:37:56.242Z,11.70
2018-11-11T07:40:24.693Z,11.70
2018-11-11T07:42:53.167Z,11.60
2018-11-11T07:45:21.606Z,11.70
2018-11-11T07:47:50.077Z,11.70
2018-11-11T07:50:18.544Z,11.70
2018-11-11T07:52:47.026Z,11.70
2018-11-11T07:55:15.557Z,11.80
2018-11-11T07:57:44.202Z,11.80
2018-11-11T08:00:14.289Z,11.90
2018-11-11T08:02:43.201Z,11.90
2018-11-11T08:05:11.678Z,11.90
2018-11-11T08:07:40.148Z,11.90
2018-11-11T08:10:20.038Z,12.00
2018-11-11T08:12:48.817Z,12.10
2018-11-11T08:15:17.274Z,12.20
2018-11-11T08:17:45.775Z,12.20
2018-11-11T08:20:14.220Z,12.30
2018-11-11T08:22:42.692Z,12.30
2018-11-11T08:25:11.293Z,12.40
2018-11-11T08:27:40.018Z,12.40
2018-11-11T08:30:09.289Z,12.40
2018-11-11T08:32:38.114Z,12.40
2018-11-11T08:35:08.489Z,12.50
2018-11-11T08:37:37.089Z,12.60
2018-11-11T08:40:06.278Z,12.70
2018-11-11T08:42:34.750Z,12.70
2018-11-11T08:45:04.063Z,12.70
2018-11-11T08:47:32.518Z,12.80
2018-11-11T08:50:00.949Z,12.80
2018-11-11T08:52:29.423Z,12.80
2018-11-11T08:54:57.938Z,13.00
2018-11-11T08:57:26.414Z,12.90
2018-11-11T08:59:55.947Z,13.00
2018-11-11T09:02:24.463Z,13.00
2018-11-11T09:04:52.988Z,13.10
2018-11-11T09:07:21.578Z,13.10
2018-11-11T09:09:50.022Z,13.10
2018-11-11T09:12:18.482Z,13.20
2018-11-11T09:14:46.978Z,13.20
2018-11-11T09:17:15.470Z,13.30
2018-11-11T09:21:08.530Z,13.50
2018-11-11T09:23:37.016Z,13.60
2018-11-11T09:26:05.792Z,13.70
2018-11-11T09:28:34.261Z,13.60
2018-11-11T09:31:03.063Z,13.50
2018-11-11T09:33:31.598Z,13.50
2018-11-11T09:36:00.064Z,13.40
2018-11-11T09:38:28.537Z,13.40
2018-11-11T09:40:56.994Z,13.30
2018-11-11T09:43:25.470Z,13.30
2018-11-11T09:45:53.910Z,13.30
2018-11-11T09:48:22.394Z,13.20
2018-11-11T09:50:50.902Z,13.30
2018-11-11T09:53:20.164Z,13.30
2018-11-11T09:55:48.599Z,13.20
2018-11-11T09:58:17.081Z,13.20
2018-11-11T10:00:46.170Z,13.30
2018-11-11T10:03:35.966Z,13.30
2018-11-11T10:06:23.442Z,13.30
2018-11-11T10:09:01.414Z,13.30
2018-11-11T10:11:36.884Z,13.40
2018-11-11T10:14:12.034Z,13.50
2018-11-11T10:16:45.888Z,13.70
2018-11-11T10:19:24.454Z,14.00
2018-11-11T10:23:01.966Z,14.10
2018-11-11T10:25:35.803Z,14.10
2018-11-11T10:28:23.497Z,14.00
2018-11-11T10:30:59.942Z,14.20
2018-11-11T10:33:33.276Z,14.40
2018-11-11T10:38:10.217Z,14.40
2018-11-11T10:40:49.791Z,14.20
2018-11-11T10:43:36.942Z,14.10
2018-11-11T10:46:11.766Z,14.00
2018-11-11T10:48:42.977Z,14.10
2018-11-11T10:51:11.477Z,14.20
2018-11-11T10:53:39.906Z,14.20
2018-11-11T10:56:08.375Z,14.30
2018-11-11T10:58:36.801Z,14.30
2018-11-11T11:01:09.059Z,14.30
2018-11-11T11:03:38.094Z,14.30
2018-11-11T11:06:06.628Z,14.30
2018-11-11T11:08:35.235Z,14.30
2018-11-11T11:11:03.689Z,14.20
2018-11-11T11:13:32.287Z,14.20
2018-11-11T11:16:00.865Z,14.10
2018-11-11T11:18:29.313Z,14.00
2018-11-11T11:20:57.778Z,13.80
2018-11-11T11:23:26.218Z,13.80
2018-11-11T11:25:54.712Z,13.80
2018-11-11T11:28:23.163Z,13.70
2018-11-11T11:30:51.638Z,13.80
2018-11-11T11:33:20.109Z,13.80
2018-11-11T11:35:48.654Z,13.80
2018-11-11T11:38:17.319Z,13.80
2018-11-11T11:40:45.962Z,13.80
2018-11-11T11:43:14.398Z,13.80
2018-11-11T11:45:42.871Z,13.90
2018-11-11T11:48:11.321Z,13.90
2018-11-11T11:50:39.778Z,13.90
2018-11-11T11:53:08.427Z,13.90
2018-11-11T11:55:36.898Z,13.90
2018-11-11T11:58:17.782Z,14.00
2018-11-11T12:00:46.221Z,14.10
2018-11-11T12:03:15.066Z,14.20
2018-11-11T12:05:43.577Z,14.20
2018-11-11T12:08:12.129Z,14.20
2018-11-11T12:10:40.582Z,14.30
2018-11-11T12:13:09.886Z,14.20
2018-11-11T12:15:38.458Z,14.10
2018-11-11T12:18:06.941Z,14.20
2018-11-11T12:20:35.958Z,14.20
2018-11-11T12:23:04.790Z,14.30
2018-11-11T12:25:34.386Z,14.40
2018-11-11T12:28:02.866Z,14.40
2018-11-11T12:30:31.400Z,14.50
2018-11-11T12:33:00.046Z,14.50
2018-11-11T12:35:28.493Z,14.40
2018-11-11T12:37:56.973Z,14.40
2018-11-11T12:40:25.521Z,14.30
2018-11-11T12:42:54.070Z,14.30
2018-11-11T12:45:22.875Z,14.30
2018-11-11T12:47:51.385Z,14.30
2018-11-11T12:50:19.849Z,14.20
2018-11-11T12:52:48.507Z,14.20
2018-11-11T12:55:17.004Z,14.20
2018-11-11T12:57:45.625Z,14.20
2018-11-11T13:00:16.131Z,14.20
2018-11-11T13:02:44.658Z,14.30
2018-11-11T13:05:13.123Z,14.40
2018-11-11T13:07:41.581Z,14.40
2018-11-11T13:10:12.283Z,14.50
2018-11-11T13:12:41.058Z,14.60
2018-11-11T13:15:11.773Z,14.70
2018-11-11T13:17:40.666Z,14.60
2018-11-11T13:20:11.389Z,14.60
2018-11-11T13:22:40.012Z,14.50
2018-11-11T13:25:09.510Z,14.50
2018-11-11T13:27:38.394Z,14.40
2018-11-11T13:30:08.286Z,14.30
2018-11-11T13:32:36.867Z,14.30
2018-11-11T13:35:06.702Z,14.20
2018-11-11T13:37:35.163Z,14.20
2018-11-11T13:40:04.150Z,14.20
2018-11-11T13:42:32.587Z,14.20
2018-11-11T13:45:01.036Z,14.20
2018-11-11T13:47:29.503Z,14.20
2018-11-11T13:49:57.973Z,14.10
2018-11-11T13:52:26.465Z,14.10
2018-11-11T13:54:55.097Z,14.00
2018-11-11T13:57:23.586Z,14.10
2018-11-11T13:59:52.226Z,14.00
2018-11-11T14:02:20.673Z,14.00
2018-11-11T14:04:49.126Z,14.00
2018-11-11T14:07:17.618Z,13.90
2018-11-11T14:09:46.104Z,13.90
2018-11-11T14:12:14.562Z,13.90
2018-11-11T14:14:43.023Z,13.90
2018-11-11T14:17:11.482Z,13.80
2018-11-11T14:19:40.069Z,13.80
2018-11-11T14:22:08.654Z,13.80
2018-11-11T14:24:37.182Z,13.70
2018-11-11T14:27:06.187Z,13.70
2018-11-11T14:29:34.638Z,13.70
2018-11-11T14:32:03.117Z,13.70
2018-11-11T14:34:31.677Z,13.60
2018-11-11T14:37:00.338Z,13.60
2018-11-11T14:39:28.805Z,13.50
2018-11-11T14:41:57.255Z,13.50
2018-11-11T14:44:25.726Z,13.40
2018-11-11T14:46:54.185Z,13.40
2018-11-11T14:49:22.639Z,13.30
2018-11-11T14:51:51.556Z,13.20
2018-11-11T14:54:24.954Z,13.10
2018-11-11T14:56:53.373Z,13.10
2018-11-11T14:59:21.817Z,13.00
2018-11-11T15:01:50.258Z,12.90
2018-11-11T15:04:18.688Z,12.70
2018-11-11T15:06:47.121Z,12.60
2018-11-11T15:09:15.577Z,12.40
2018-11-11T15:11:44.015Z,12.30
2018-11-11T15:14:12.565Z,12.20
2018-11-11T15:16:41.358Z,12.10
2018-11-11T15:19:09.911Z,12.00
2018-11-11T15:21:38.394Z,12.00
2018-11-11T15:24:06.854Z,12.00
2018-11-11T15:26:35.309Z,11.90
2018-11-11T15:29:03.802Z,11.90
2018-11-11T15:31:32.244Z,11.90
2018-11-11T15:34:00.858Z,11.90
2018-11-11T15:36:29.322Z,11.90
2018-11-11T15:38:57.758Z,11.90
2018-11-11T15:41:26.213Z,11.80
2018-11-11T15:43:54.842Z,11.80
2018-11-11T15:46:23.306Z,11.80
2018-11-11T15:48:51.761Z,11.80
2018-11-11T15:51:20.213Z,11.80
2018-11-11T15:53:48.646Z,11.80
2018-11-11T15:56:17.110Z,11.90
2018-11-11T15:58:45.529Z,11.90
2018-11-11T16:01:13.983Z,11.80
2018-11-11T16:03:42.406Z,11.80
2018-11-11T16:06:10.916Z,11.80
2018-11-11T16:08:39.451Z,11.80
2018-11-11T16:11:07.901Z,11.80
2018-11-11T16:13:36.321Z,11.80
2018-11-11T16:16:05.078Z,11.80
2018-11-11T16:18:33.572Z,11.80
2018-11-11T16:21:16.628Z,11.80
2018-11-11T16:23:45.162Z,11.80
2018-11-11T16:26:13.733Z,11.80
2018-11-11T16:28:42.150Z,11.80
2018-11-11T16:31:10.596Z,11.80
2018-11-11T16:33:39.096Z,11.90
2018-11-11T16:36:07.685Z,11.90
2018-11-11T16:38:36.177Z,11.90
2018-11-11T16:41:05.335Z,11.90
2018-11-11T16:43:33.811Z,11.90
2018-11-11T16:46:02.246Z,11.90
2018-11-11T16:48:30.675Z,11.90
2018-11-11T16:50:59.103Z,11.90
2018-11-11T16:53:27.537Z,11.90
2018-11-11T16:55:55.953Z,11.90
2018-11-11T16:58:24.414Z,11.90
2018-11-11T17:00:52.870Z,11.90
2018-11-11T17:03:21.308Z,11.90
2018-11-11T17:05:49.765Z,11.90
2018-11-11T17:08:18.218Z,11.90
2018-11-11T17:10:46.634Z,11.90
2018-11-11T17:13:15.166Z,11.90
2018-11-11T17:15:43.589Z,11.90
2018-11-11T17:18:12.024Z,11.90
2018-11-11T17:20:40.539Z,11.90
2018-11-11T17:23:09.432Z,11.90
2018-11-11T17:25:37.859Z,11.90
2018-11-11T17:28:06.718Z,11.90
2018-11-11T17:30:35.324Z,11.90
2018-11-11T17:33:03.993Z,11.90
2018-11-11T17:35:32.622Z,12.00
2018-11-11T17:38:01.083Z,12.00
2018-11-11T17:40:30.616Z,12.00
2018-11-11T17:43:00.726Z,12.00
2018-11-11T17:45:29.337Z,12.00
2018-11-11T17:47:58.009Z,12.00
2018-11-11T17:50:28.626Z,12.00
2018-11-11T17:52:58.050Z,12.00
2018-11-11T17:55:27.310Z,12.00
2018-11-11T17:57:55.986Z,12.00
2018-11-11T18:00:26.073Z,12.00
2018-11-11T18:02:54.934Z,12.00
2018-11-11T18:05:24.394Z,12.00
2018-11-11T18:07:52.859Z,12.00
2018-11-11T18:10:22.598Z,12.00
2018-11-11T18:12:51.183Z,12.00
2018-11-11T18:15:24.432Z,12.00
2018-11-11T18:17:53.628Z,12.00
2018-11-11T18:20:23.468Z,12.00
2018-11-11T18:22:52.682Z,12.00
2018-11-11T18:25:21.701Z,12.00
2018-11-11T18:27:50.324Z,12.00
2018-11-11T18:30:21.497Z,12.00
2018-11-11T18:32:50.139Z,12.00
2018-11-11T18:35:19.154Z,12.00
2018-11-11T18:37:47.598Z,12.00
2018-11-11T18:40:17.520Z,11.90
2018-11-11T18:42:46.403Z,11.90
2018-11-11T18:45:16.940Z,11.90
2018-11-11T18:47:45.966Z,11.90
2018-11-11T18:50:16.715Z,11.90
2018-11-11T18:52:45.173Z,11.90
2018-11-11T18:55:13.790Z,11.80
2018-11-11T18:57:42.786Z,11.80
2018-11-11T19:00:14.713Z,11.80
2018-11-11T19:02:44.253Z,11.80
2018-11-11T19:05:14.042Z,11.80
2018-11-11T19:07:42.721Z,11.80
2018-11-11T19:10:16.533Z,11.80
2018-11-11T19:12:46.080Z,11.70
2018-11-11T19:15:15.698Z,11.70
2018-11-11T19:17:44.653Z,11.70
2018-11-11T19:20:14.370Z,11.70
2018-11-11T19:22:42.889Z,11.70
2018-11-11T19:25:13.544Z,11.70
2018-11-11T19:27:43.223Z,11.70
2018-11-11T19:30:12.894Z,11.70
2018-11-11T19:32:42.054Z,11.70
2018-11-11T19:35:11.733Z,11.70
2018-11-11T19:37:40.182Z,11.70
2018-11-11T19:40:12.096Z,11.70
2018-11-11T19:42:41.052Z,11.60
2018-11-11T19:45:10.892Z,11.60
2018-11-11T19:47:39.707Z,11.60
2018-11-11T19:50:09.443Z,11.60
2018-11-11T19:52:38.126Z,11.60
2018-11-11T19:55:07.571Z,11.60
2018-11-11T19:57:36.006Z,11.60
2018-11-11T20:00:04.746Z,11.60
2018-11-11T20:02:33.293Z,11.60
2018-11-11T20:05:01.860Z,11.60
2018-11-11T20:07:30.326Z,11.70
2018-11-11T20:09:58.729Z,11.70
2018-11-11T20:12:27.374Z,11.70
2018-11-11T20:14:55.806Z,11.70
2018-11-11T20:17:24.289Z,11.80
2018-11-11T20:19:52.858Z,11.80
2018-11-11T20:22:21.307Z,11.80
2018-11-11T20:24:49.726Z,11.80
2018-11-11T20:27:18.207Z,11.80
2018-11-11T20:29:46.639Z,11.80
2018-11-11T20:32:15.100Z,11.80
2018-11-11T20:34:43.555Z,11.80
2018-11-11T20:37:12.003Z,11.70
2018-11-11T20:39:40.614Z,11.80
2018-11-11T20:42:09.069Z,11.80
2018-11-11T20:44:37.497Z,11.80
2018-11-11T20:47:06.306Z,11.80
2018-11-11T20:49:34.773Z,11.80
2018-11-11T20:52:03.734Z,11.70
2018-11-11T20:54:32.189Z,11.80
2018-11-11T20:57:00.812Z,11.80
2018-11-11T20:59:29.271Z,11.80
2018-11-11T21:01:57.783Z,11.80
2018-11-11T21:04:26.217Z,11.80
2018-11-11T21:06:54.661Z,11.80
2018-11-11T21:09:23.103Z,11.80
2018-11-11T21:11:51.536Z,11.80
2018-11-11T21:14:19.976Z,11.80
2018-11-11T21:16:48.426Z,11.80
2018-11-11T21:19:16.860Z,11.80
2018-11-11T21:21:45.503Z,11.80
2018-11-11T21:24:14.285Z,11.80
2018-11-11T21:26:42.709Z,11.80
2018-11-11T21:29:11.165Z,11.80
2018-11-11T21:31:39.618Z,11.80
2018-11-11T21:34:08.059Z,11.80
2018-11-11T21:36:36.495Z,11.70
2018-11-11T21:39:08.606Z,11.70
2018-11-11T21:41:37.214Z,11.70
2018-11-11T21:44:05.683Z,11.70
2018-11-11T21:46:34.102Z,11.70
2018-11-11T21:49:02.735Z,11.70
2018-11-11T21:51:31.162Z,11.60
2018-11-11T21:53:59.605Z,11.70
2018-11-11T21:56:28.223Z,11.60
2018-11-11T21:58:56.661Z,11.60
2018-11-11T22:01:25.090Z,11.60
2018-11-11T22:03:53.559Z,11.60
2018-11-11T22:06:21.985Z,11.60
2018-11-11T22:08:50.510Z,11.60
2018-11-11T22:11:19.055Z,11.60
2018-11-11T22:13:47.486Z,11.60
2018-11-11T22:16:15.905Z,11.60
2018-11-11T22:18:44.390Z,11.60
2018-11-11T22:21:12.846Z,11.60
2018-11-11T22:23:41.277Z,11.60
2018-11-11T22:26:09.705Z,11.60
2018-11-11T22:28:38.140Z,11.60
2018-11-11T22:31:06.574Z,11.60
2018-11-11T22:33:35.022Z,11.60
2018-11-11T22:36:03.454Z,11.60
2018-11-11T22:38:31.897Z,11.60
2018-11-11T22:41:00.319Z,11.60
2018-11-11T22:43:28.780Z,11.60
2018-11-11T22:45:57.212Z,11.60
2018-11-11T22:48:25.657Z,11.50
2018-11-11T22:50:54.089Z,11.50
2018-11-11T22:53:22.534Z,11.40
2018-11-11T22:55:50.979Z,11.30
2018-11-11T22:58:19.446Z,11.30
2018-11-11T23:00:53.097Z,11.30
2018-11-11T23:03:21.562Z,11.20
2018-11-11T23:05:50.002Z,11.20
2018-11-11T23:08:18.448Z,11.20
2018-11-11T23:10:46.867Z,11.20
2018-11-11T23:13:15.314Z,11.10
2018-11-11T23:15:43.749Z,11.20
2018-11-11T23:18:12.177Z,11.20
2018-11-11T23:20:40.613Z,11.20
2018-11-11T23:23:09.072Z,11.20
2018-11-11T23:25:37.510Z,11.20
2018-11-11T23:28:06.542Z,11.20
2018-11-11T23:30:34.962Z,11.20
2018-11-11T23:33:03.406Z,11.30
2018-11-11T23:35:31.863Z,11.30
2018-11-11T23:38:00.308Z,11.30
2018-11-11T23:40:28.768Z,11.30
2018-11-11T23:42:57.199Z,11.30
2018-11-11T23:45:25.659Z,11.40
2018-11-11T23:47:54.071Z,11.40
2018-11-11T23:50:22.549Z,11.30
2018-11-11T23:52:50.990Z,11.40
2018-11-11T23:55:19.858Z,11.30
2018-11-11T23:57:48.522Z,11.30
